Time;durP1;ratioP1;P1;durP2;ratioP2;P2;SDS_P1;SDS_P2;PMS_P1;PMS_P2;Temp;Humidity;BMP_temperature;BMP_pressure;BME280_temperature;BME280_humidity;BME280_pressure;Samples;Min_cycle;Max_cycle;Signal;HPM_P1;HPM_P2
2021/05/10 00:01:47;;;;;;;2.13;1.45;;;17.70;96.50;;;;;;5077265;28;20587;-92
2021/05/10 00:04:13;;;;;;;2.38;1.55;;;17.70;96.60;;;;;;5076895;28;20169;-94
2021/05/10 00:06:39;;;;;;;3.45;1.73;;;17.60;96.90;;;;;;5076500;28;20240;-92
2021/05/10 00:09:05;;;;;;;2.88;1.40;;;17.60;96.60;;;;;;5076747;28;20260;-93
2021/05/10 00:11:34;;;;;;;1.70;1.27;;;17.60;96.60;;;;;;5076918;28;20169;-93
2021/05/10 00:14:03;;;;;;;1.75;1.27;;;17.50;96.70;;;;;;5076453;28;20172;-93
2021/05/10 00:16:29;;;;;;;3.45;1.50;;;17.50;97.30;;;;;;5077136;28;20243;-93
2021/05/10 00:18:54;;;;;;;5.03;1.60;;;17.50;97.30;;;;;;5076866;28;20182;-93
2021/05/10 00:21:20;;;;;;;1.88;1.30;;;17.50;97.30;;;;;;5076801;28;20196;-93
2021/05/10 00:23:46;;;;;;;2.47;1.60;;;17.40;97.00;;;;;;5076721;28;20204;-94
2021/05/10 00:26:11;;;;;;;1.70;1.30;;;17.40;97.20;;;;;;5076259;28;20192;-95
2021/05/10 00:28:37;;;;;;;4.45;1.30;;;17.40;96.90;;;;;;5075897;28;20200;-95
2021/05/10 00:31:04;;;;;;;2.05;1.40;;;17.40;97.30;;;;;;5075983;28;20593;-93
2021/05/10 00:33:30;;;;;;;2.67;1.40;;;17.30;97.30;;;;;;5075721;28;20229;-91
2021/05/10 00:35:56;;;;;;;1.65;1.42;;;17.30;97.00;;;;;;5075777;28;20170;-93
2021/05/10 00:38:22;;;;;;;1.83;1.38;;;17.30;97.20;;;;;;5075730;28;20616;-92
2021/05/10 00:40:48;;;;;;;4.75;1.30;;;17.30;97.30;;;;;;5076102;28;20219;-92
2021/05/10 00:43:13;;;;;;;5.68;1.42;;;17.30;97.30;;;;;;5075768;28;20193;-95
2021/05/10 00:45:39;;;;;;;5.93;1.50;;;17.30;96.90;;;;;;5075684;28;20193;-94
2021/05/10 00:48:05;;;;;;;6.07;1.60;;;17.20;96.90;;;;;;5075740;28;20169;-91
2021/05/10 00:50:31;;;;;;;1.58;1.48;;;17.20;97.00;;;;;;5075294;28;20165;-94
2021/05/10 00:52:57;;;;;;;3.10;1.40;;;17.20;97.20;;;;;;5075227;28;20565;-93
2021/05/10 00:55:23;;;;;;;2.20;1.50;;;17.10;97.30;;;;;;5075283;28;20171;-93
2021/05/10 00:58:01;;;;;;;2.53;1.50;;;17.20;97.50;;;;;;5075079;28;20675;-93
2021/05/10 01:00:34;;;;;;;1.70;1.60;;;17.20;97.50;;;;;;5075051;28;20195;-94
2021/05/10 01:02:59;;;;;;;2.25;1.60;;;17.10;97.70;;;;;;5074904;28;20687;-93
2021/05/10 01:05:26;;;;;;;1.95;1.35;;;17.10;97.60;;;;;;5075338;28;20169;-95
2021/05/10 01:07:52;;;;;;;2.40;1.45;;;17.00;97.70;;;;;;5076196;28;20614;-96
2021/05/10 01:10:20;;;;;;;1.48;1.30;;;17.00;97.70;;;;;;5075536;28;20247;-93
2021/05/10 01:12:47;;;;;;;2.05;1.60;;;17.00;97.60;;;;;;5075673;28;20193;-92
2021/05/10 01:15:16;;;;;;;1.48;1.30;;;17.00;97.80;;;;;;5074745;28;20200;-92
2021/05/10 01:17:42;;;;;;;1.92;1.42;;;16.90;97.80;;;;;;5074816;28;20222;-95
2021/05/10 01:20:10;;;;;;;3.08;1.63;;;16.90;98.00;;;;;;5074796;28;20564;-93
2021/05/10 01:22:41;;;;;;;2.05;1.42;;;16.90;97.90;;;;;;5074714;28;20661;-92
2021/05/10 01:25:10;;;;;;;2.65;1.45;;;16.90;97.90;;;;;;5074779;28;20184;-93
2021/05/10 01:27:36;;;;;;;2.45;1.55;;;16.80;98.10;;;;;;5074507;28;20180;-91
2021/05/10 01:30:08;;;;;;;2.30;1.55;;;16.80;98.10;;;;;;5074608;28;20188;-91
2021/05/10 01:32:34;;;;;;;2.20;1.55;;;16.70;98.10;;;;;;5074343;28;20197;-96
2021/05/10 01:35:00;;;;;;;2.25;1.35;;;16.70;98.10;;;;;;5074393;28;20184;-93
2021/05/10 01:37:26;;;;;;;3.17;1.40;;;16.60;98.30;;;;;;5074365;28;20170;-92
2021/05/10 01:39:52;;;;;;;2.85;1.48;;;16.60;98.20;;;;;;5074301;28;20227;-92
2021/05/10 01:42:18;;;;;;;1.85;1.35;;;16.60;98.40;;;;;;5074161;28;20225;-94
2021/05/10 01:44:43;;;;;;;4.50;1.60;;;16.50;98.50;;;;;;5440605;22;20263;-94
2021/05/10 01:47:09;;;;;;;2.83;1.48;;;16.50;98.60;;;;;;5031946;28;20202;-95
2021/05/10 01:49:35;;;;;;;2.17;1.50;;;16.50;98.70;;;;;;5033538;28;20190;-94
2021/05/10 01:52:01;;;;;;;1.77;1.42;;;16.40;98.70;;;;;;5032759;28;20198;-95
2021/05/10 01:54:28;;;;;;;3.85;1.60;;;16.30;98.70;;;;;;5028958;28;20718;-95
2021/05/10 01:56:54;;;;;;;3.28;1.67;;;16.30;98.70;;;;;;5030010;28;20173;-93
2021/05/10 01:59:20;;;;;;;3.78;1.40;;;16.30;98.80;;;;;;5014505;28;20156;-94
2021/05/10 02:01:46;;;;;;;3.05;1.88;;;16.20;98.80;;;;;;5029721;28;20198;-93
2021/05/10 02:04:12;;;;;;;2.00;1.50;;;16.20;98.80;;;;;;5045346;28;20538;-93
2021/05/10 02:06:38;;;;;;;2.08;1.80;;;16.20;98.80;;;;;;5033829;28;20173;-94
2021/05/10 02:09:04;;;;;;;2.13;1.85;;;16.10;98.90;;;;;;5062546;28;20225;-95
2021/05/10 02:11:30;;;;;;;3.72;1.63;;;16.10;99.10;;;;;;5032089;28;20178;-94
2021/05/10 02:13:56;;;;;;;2.80;1.60;;;16.10;99.20;;;;;;5036086;28;20178;-94
2021/05/10 02:16:22;;;;;;;2.50;1.60;;;16.00;99.30;;;;;;5052885;28;20253;-92
2021/05/10 02:18:48;;;;;;;5.68;2.10;;;15.90;99.40;;;;;;5052653;28;20645;-93
2021/05/10 02:21:14;;;;;;;4.05;1.65;;;15.90;99.50;;;;;;5052623;28;20198;-94
2021/05/10 02:23:40;;;;;;;2.22;1.65;;;15.80;99.50;;;;;;5052406;28;20240;-94
2021/05/10 02:26:07;;;;;;;1.70;1.52;;;15.70;99.60;;;;;;5043657;28;20665;-96
2021/05/10 02:28:34;;;;;;;2.03;1.50;;;15.70;99.50;;;;;;5046143;28;20573;-92
2021/05/10 02:31:01;;;;;;;2.05;1.58;;;15.70;99.60;;;;;;5029454;28;20661;-94
2021/05/10 02:33:29;;;;;;;3.22;1.83;;;15.70;99.70;;;;;;5045748;28;20699;-96
2021/05/10 02:35:56;;;;;;;3.58;1.73;;;15.70;99.80;;;;;;5029318;28;20176;-95
2021/05/10 02:38:23;;;;;;;2.95;1.60;;;15.70;99.80;;;;;;5046281;28;20198;-95
2021/05/10 02:40:51;;;;;;;8.70;1.92;;;15.70;99.90;;;;;;5029134;28;20781;-95
2021/05/10 02:43:18;;;;;;;2.72;1.75;;;15.70;99.90;;;;;;5049381;28;20658;-95
2021/05/10 02:45:45;;;;;;;1.88;1.73;;;15.70;99.80;;;;;;5008797;28;680105;-95
2021/05/10 02:48:12;;;;;;;2.40;1.90;;;15.70;99.80;;;;;;5046656;28;20187;-95
2021/05/10 02:50:37;;;;;;;2.40;1.75;;;15.70;99.90;;;;;;5030247;28;20269;-94
2021/05/10 02:53:03;;;;;;;2.08;1.60;;;15.70;99.90;;;;;;5034765;28;20233;-96
2021/05/10 02:55:29;;;;;;;3.50;1.73;;;15.70;99.90;;;;;;5052944;28;20621;-95
2021/05/10 02:57:55;;;;;;;3.35;1.58;;;15.70;99.90;;;;;;5053007;28;20181;-93
2021/05/10 03:00:24;;;;;;;3.97;1.83;;;15.70;99.90;;;;;;5052686;28;20196;-94
2021/05/10 03:02:51;;;;;;;2.17;1.67;;;15.80;99.90;;;;;;5012921;28;20282;-96
2021/05/10 03:05:19;;;;;;;1.77;1.50;;;15.80;99.90;;;;;;5029125;28;20179;-94
2021/05/10 03:07:45;;;;;;;3.13;1.63;;;15.80;99.90;;;;;;5032616;28;20174;-95
2021/05/10 03:10:15;;;;;;;2.17;1.83;;;15.80;99.90;;;;;;5033523;28;20166;-94
2021/05/10 03:12:41;;;;;;;3.60;1.65;;;15.80;99.90;;;;;;5033224;28;20272;-94
2021/05/10 03:15:12;;;;;;;2.25;1.80;;;15.90;99.70;;;;;;5032722;28;20178;-95
2021/05/10 03:17:39;;;;;;;2.70;1.63;;;15.90;99.80;;;;;;5065754;28;20181;-94
2021/05/10 03:20:13;;;;;;;2.35;1.60;;;15.90;99.60;;;;;;5033018;28;20201;-95
2021/05/10 03:22:39;;;;;;;2.25;1.63;;;15.90;99.60;;;;;;5033042;28;20277;-93
2021/05/10 03:25:07;;;;;;;2.55;1.95;;;15.90;99.70;;;;;;5032950;28;20175;-96
2021/05/10 03:27:42;;;;;;;3.22;1.70;;;15.90;99.70;;;;;;5033076;28;20176;-94
2021/05/10 03:30:15;;;;;;;2.40;1.88;;;15.80;99.70;;;;;;5032649;28;20181;-95
2021/05/10 03:32:42;;;;;;;2.15;1.73;;;15.90;99.70;;;;;;5029749;28;20281;-95
2021/05/10 03:35:09;;;;;;;3.13;1.60;;;15.90;99.60;;;;;;5052301;28;20199;-95
2021/05/10 03:37:36;;;;;;;2.58;1.73;;;15.90;99.60;;;;;;5046518;28;20646;-95
2021/05/10 03:40:03;;;;;;;2.28;1.60;;;15.90;99.60;;;;;;5045965;28;20199;-96
2021/05/10 03:42:29;;;;;;;1.95;1.50;;;15.90;99.60;;;;;;5046107;28;20730;-95
2021/05/10 03:44:55;;;;;;;2.10;1.60;;;15.80;99.60;;;;;;5045771;28;20230;-96
2021/05/10 03:47:21;;;;;;;2.97;1.65;;;15.90;99.60;;;;;;5020749;28;20179;-96
2021/05/10 03:49:48;;;;;;;4.65;1.88;;;15.90;99.60;;;;;;5032010;28;20201;-95
2021/05/10 03:52:14;;;;;;;2.92;1.80;;;15.90;99.40;;;;;;5059002;28;20199;-95
2021/05/10 03:54:40;;;;;;;2.40;2.15;;;15.90;99.60;;;;;;5029163;28;20642;-95
2021/05/10 03:57:06;;;;;;;4.10;1.55;;;15.80;99.60;;;;;;5030256;28;20175;-94
2021/05/10 03:59:32;;;;;;;3.47;1.95;;;15.80;99.80;;;;;;5034934;28;20222;-94
2021/05/10 04:02:01;;;;;;;3.42;1.77;;;15.80;99.80;;;;;;5032365;28;20245;-96
2021/05/10 04:04:49;;;;;;;2.90;2.00;;;15.70;99.90;;;;;;5065979;28;20175;-96
2021/05/10 04:15:12;;;;;;;2.63;2.20;;;15.60;99.90;;;;;;5033298;28;20665;-94
2021/05/10 04:17:38;;;;;;;3.75;1.83;;;15.60;99.90;;;;;;5065745;28;20201;-94
2021/05/10 04:20:04;;;;;;;4.78;1.90;;;15.60;99.90;;;;;;5069285;28;20669;-94
2021/05/10 04:22:30;;;;;;;2.20;1.65;;;15.60;99.90;;;;;;5068730;28;20197;-94
2021/05/10 04:24:55;;;;;;;5.93;2.00;;;15.70;99.90;;;;;;5068164;28;20174;-95
2021/05/10 04:27:21;;;;;;;1.77;1.67;;;15.70;99.90;;;;;;5035337;28;20182;-94
2021/05/10 04:29:47;;;;;;;3.63;2.10;;;15.70;99.90;;;;;;5035696;28;20190;-95
2021/05/10 04:32:13;;;;;;;3.80;2.13;;;15.80;99.90;;;;;;5065724;28;20198;-95
2021/05/10 04:34:38;;;;;;;2.38;1.70;;;15.90;99.90;;;;;;5068485;28;20174;-95
2021/05/10 04:37:04;;;;;;;6.95;2.05;;;15.90;99.90;;;;;;5068869;28;20166;-95
2021/05/10 04:39:30;;;;;;;3.38;1.63;;;16.00;99.90;;;;;;5034723;28;20194;-92
2021/05/10 04:41:55;;;;;;;3.75;1.90;;;16.00;99.90;;;;;;5068959;28;20599;-93
2021/05/10 04:44:21;;;;;;;1.70;1.40;;;16.10;99.90;;;;;;5068654;28;20622;-94
2021/05/10 04:46:47;;;;;;;2.55;1.85;;;16.10;99.90;;;;;;5068305;28;20226;-95
2021/05/10 04:49:12;;;;;;;2.10;1.85;;;16.10;99.90;;;;;;5068651;28;20225;-96
2021/05/10 04:51:38;;;;;;;2.33;1.95;;;16.10;99.90;;;;;;5059235;28;20171;-95
2021/05/10 04:54:04;;;;;;;2.03;1.63;;;16.10;99.90;;;;;;5035442;28;20670;-96
2021/05/10 04:56:30;;;;;;;5.47;1.92;;;16.10;99.90;;;;;;5034305;28;20179;-94
2021/05/10 04:58:56;;;;;;;2.03;1.70;;;16.10;99.90;;;;;;5034684;28;20166;-93
2021/05/10 05:01:21;;;;;;;2.75;1.70;;;16.10;99.90;;;;;;5034989;28;20225;-93
2021/05/10 05:03:47;;;;;;;4.75;1.77;;;16.20;99.90;;;;;;5035737;28;20249;-93
2021/05/10 05:06:13;;;;;;;4.05;1.90;;;16.20;99.90;;;;;;5034975;28;20634;-94
2021/05/10 05:08:39;;;;;;;4.38;1.73;;;16.30;99.90;;;;;;5035272;28;20181;-95
2021/05/10 05:11:04;;;;;;;2.30;1.67;;;16.30;99.90;;;;;;5034791;28;20171;-94
2021/05/10 05:13:31;;;;;;;2.53;1.50;;;16.30;99.90;;;;;;5034941;28;20204;-95
2021/05/10 05:15:56;;;;;;;4.30;1.83;;;16.40;99.90;;;;;;5034582;28;20178;-93
2021/05/10 05:18:22;;;;;;;2.58;1.83;;;16.40;99.90;;;;;;5051160;28;20189;-94
2021/05/10 05:20:49;;;;;;;4.05;1.70;;;16.40;99.90;;;;;;5030743;28;20191;-93
2021/05/10 05:23:28;;;;;;;2.20;1.60;;;16.40;99.90;;;;;;5036556;28;20259;-95
2021/05/10 05:26:02;;;;;;;2.15;1.60;;;16.50;99.90;;;;;;5034154;28;20174;-95
2021/05/10 05:28:29;;;;;;;1.67;1.58;;;16.50;99.90;;;;;;5033390;28;20162;-95
2021/05/10 05:30:57;;;;;;;4.53;1.60;;;16.60;99.90;;;;;;5035117;28;20220;-92
2021/05/10 05:33:25;;;;;;;2.67;1.60;;;16.70;99.90;;;;;;5042450;28;20661;-96
2021/05/10 05:36:05;;;;;;;4.30;1.65;;;16.80;99.90;;;;;;5053483;28;20228;-93
2021/05/10 05:38:36;;;;;;;3.97;1.70;;;16.80;99.90;;;;;;5054066;28;20169;-93
2021/05/10 05:41:11;;;;;;;3.25;1.58;;;17.00;99.90;;;;;;5053853;28;20194;-94
2021/05/10 05:43:37;;;;;;;2.92;1.58;;;17.10;99.90;;;;;;5054252;28;20212;-93
2021/05/10 05:48:57;;;;;;;13.93;2.72;;;17.30;99.90;;;;;;5053381;28;20184;-93
2021/05/10 05:51:29;;;;;;;4.78;2.10;;;17.40;99.90;;;;;;5046568;28;20170;-93
2021/05/10 05:53:57;;;;;;;2.55;1.90;;;17.50;99.90;;;;;;5051586;28;20276;-94
2021/05/10 05:56:27;;;;;;;5.35;1.95;;;17.60;99.90;;;;;;5047006;28;20222;-94
2021/05/10 05:58:53;;;;;;;5.72;1.73;;;17.70;99.20;;;;;;5053180;28;20181;-94
2021/05/10 06:01:25;;;;;;;3.95;1.92;;;17.70;98.90;;;;;;5039037;28;20555;-94
2021/05/10 06:04:19;;;;;;;3.00;1.58;;;17.80;98.80;;;;;;5033414;28;20206;-94
2021/05/10 06:07:13;;;;;;;2.55;1.67;;;17.90;98.80;;;;;;5034171;28;20162;-93
2021/05/10 06:10:01;;;;;;;1.90;1.52;;;18.00;99.10;;;;;;5034008;28;20534;-94
2021/05/10 06:13:01;;;;;;;5.32;1.60;;;18.10;98.70;;;;;;5029982;28;20207;-94
2021/05/10 06:15:26;;;;;;;8.48;2.28;;;18.30;99.30;;;;;;5047643;28;20708;-95
2021/05/10 06:17:52;;;;;;;10.00;2.25;;;18.40;99.90;;;;;;5038979;28;20182;-95
2021/05/10 06:20:19;;;;;;;8.85;2.40;;;18.60;99.90;;;;;;5032206;28;20198;-93
2021/05/10 06:22:45;;;;;;;5.95;2.10;;;18.70;99.90;;;;;;5045318;28;20236;-95
2021/05/10 06:25:15;;;;;;;2.85;1.88;;;18.80;99.90;;;;;;5051694;28;20198;-94
2021/05/10 06:27:41;;;;;;;8.20;2.03;;;18.90;99.90;;;;;;5052375;28;20196;-94
2021/05/10 06:30:09;;;;;;;4.53;2.00;;;18.90;99.80;;;;;;5052821;28;20552;-95
2021/05/10 06:32:35;;;;;;;2.30;1.67;;;19.00;99.60;;;;;;5052854;28;20251;-92
2021/05/10 06:35:01;;;;;;;2.38;1.65;;;19.00;99.00;;;;;;5039492;28;20189;-94
2021/05/10 06:37:30;;;;;;;4.03;2.20;;;19.10;97.90;;;;;;5032828;28;20163;-92
2021/05/10 06:39:57;;;;;;;6.00;2.13;;;19.10;98.00;;;;;;5032659;28;20246;-91
2021/05/10 06:42:24;;;;;;;5.78;2.03;;;19.10;97.90;;;;;;5048960;28;20289;-92
2021/05/10 06:44:50;;;;;;;2.78;1.98;;;19.20;98.00;;;;;;5031886;28;20181;-89
2021/05/10 06:47:18;;;;;;;6.28;2.30;;;19.30;98.70;;;;;;5032621;28;20170;-93
2021/05/10 06:49:44;;;;;;;4.18;1.88;;;19.40;98.40;;;;;;5032299;28;20194;-94
2021/05/10 06:52:11;;;;;;;5.80;1.98;;;19.60;98.70;;;;;;5039025;28;20291;-92
2021/05/10 06:54:37;;;;;;;4.70;2.25;;;19.70;98.20;;;;;;5052474;28;20177;-92
2021/05/10 06:57:03;;;;;;;4.20;1.98;;;19.70;98.50;;;;;;5052119;28;20276;-93
2021/05/10 06:59:29;;;;;;;3.42;1.65;;;19.60;98.50;;;;;;5052320;28;20533;-89
2021/05/10 07:01:54;;;;;;;2.08;1.70;;;19.60;98.20;;;;;;5052256;28;20193;-93
2021/05/10 07:04:20;;;;;;;2.55;1.80;;;19.60;98.40;;;;;;5044675;28;20213;-92
2021/05/10 07:06:46;;;;;;;5.47;1.90;;;19.60;97.80;;;;;;5032655;28;20255;-94
2021/05/10 07:09:12;;;;;;;2.55;1.83;;;19.60;98.20;;;;;;5032662;28;20186;-92
2021/05/10 07:11:38;;;;;;;3.53;1.77;;;19.60;98.00;;;;;;5032520;28;20170;-91
2021/05/10 07:14:06;;;;;;;4.80;1.48;;;19.70;97.50;;;;;;5032434;28;20190;-93
2021/05/10 07:16:34;;;;;;;4.85;1.52;;;19.80;97.50;;;;;;5032315;28;20171;-92
2021/05/10 07:19:01;;;;;;;5.35;1.70;;;19.80;97.90;;;;;;5032485;28;20182;-93
2021/05/10 07:21:27;;;;;;;2.08;1.58;;;19.90;98.00;;;;;;5032454;28;20201;-94
2021/05/10 07:23:53;;;;;;;1.85;1.33;;;20.00;97.90;;;;;;5032560;28;20249;-91
2021/05/10 07:26:19;;;;;;;2.17;1.50;;;20.10;98.20;;;;;;5032579;28;20202;-94
2021/05/10 07:28:46;;;;;;;4.20;1.58;;;20.30;97.50;;;;;;5032348;28;20258;-92
2021/05/10 07:31:12;;;;;;;5.40;1.60;;;20.60;96.30;;;;;;5032596;28;20194;-92
2021/05/10 07:33:38;;;;;;;5.45;1.35;;;20.90;96.20;;;;;;5032460;28;20260;-93
2021/05/10 07:36:05;;;;;;;2.40;1.60;;;21.20;95.10;;;;;;5032493;28;20171;-91
2021/05/10 07:39:22;;;;;;;4.05;1.75;;;21.40;94.80;;;;;;5042889;28;20174;-93
2021/05/10 07:45:11;;;;;;;3.20;1.23;;;22.00;93.80;;;;;;5054617;28;20174;-93
2021/05/10 07:47:36;;;;;;;7.45;1.77;;;22.30;93.20;;;;;;5053659;28;20231;-93
2021/05/10 07:50:23;;;;;;;3.67;1.40;;;22.40;93.40;;;;;;5053174;28;20629;-93
2021/05/10 07:52:50;;;;;;;2.83;1.30;;;22.60;92.80;;;;;;5043604;28;20697;-93
2021/05/10 07:55:18;;;;;;;2.95;1.52;;;22.70;91.80;;;;;;5037296;28;20186;-94
2021/05/10 07:57:48;;;;;;;3.78;1.80;;;22.70;94.80;;;;;;5038247;28;20179;-91
2021/05/10 08:00:22;;;;;;;2.88;1.50;;;22.70;95.10;;;;;;5037282;28;20199;-92
2021/05/10 08:02:53;;;;;;;3.17;1.30;;;22.70;94.80;;;;;;5037578;28;20210;-95
2021/05/10 08:05:22;;;;;;;2.83;1.52;;;22.70;94.40;;;;;;5038913;28;20170;-94
2021/05/10 08:07:50;;;;;;;3.53;1.55;;;22.70;94.40;;;;;;5036666;28;20262;-92
2021/05/10 08:10:16;;;;;;;3.88;1.42;;;22.90;93.70;;;;;;5037141;28;20190;-93
2021/05/10 08:12:42;;;;;;;4.50;1.30;;;23.10;92.40;;;;;;5036503;28;20224;-93
2021/05/10 08:15:08;;;;;;;5.25;1.48;;;23.30;91.50;;;;;;5036420;28;20183;-93
2021/05/10 08:17:35;;;;;;;3.47;1.60;;;23.50;91.00;;;;;;5037140;28;20200;-93
2021/05/10 08:20:05;;;;;;;4.45;1.58;;;23.40;92.40;;;;;;5037282;28;20255;-93
2021/05/10 08:22:31;;;;;;;1.95;1.45;;;23.00;93.30;;;;;;5036993;28;20195;-93
2021/05/10 08:24:56;;;;;;;1.98;1.30;;;22.60;93.30;;;;;;5036271;28;20528;-92
2021/05/10 08:27:23;;;;;;;6.38;1.80;;;22.60;93.80;;;;;;5036887;28;20174;-94
2021/05/10 08:29:49;;;;;;;5.43;1.60;;;22.50;93.20;;;;;;5037389;28;20214;-94
2021/05/10 08:32:16;;;;;;;6.50;1.90;;;22.40;93.10;;;;;;5036845;28;20203;-92
2021/05/10 08:34:41;;;;;;;4.25;1.65;;;22.30;93.10;;;;;;5036625;28;20182;-93
2021/05/10 08:37:07;;;;;;;3.03;1.52;;;22.20;93.60;;;;;;5036288;28;20181;-93
2021/05/10 08:39:33;;;;;;;7.07;1.77;;;22.30;93.10;;;;;;5036317;28;20269;-92
2021/05/10 08:41:59;;;;;;;3.47;2.00;;;22.30;92.50;;;;;;5036588;28;20216;-93
2021/05/10 08:44:24;;;;;;;3.97;1.65;;;22.40;92.60;;;;;;5036562;28;20228;-92
2021/05/10 08:46:52;;;;;;;7.00;2.10;;;22.60;92.20;;;;;;5036948;28;20321;-93
2021/05/10 08:49:21;;;;;;;7.03;1.83;;;22.90;92.90;;;;;;5036630;28;20185;-92
2021/05/10 08:51:47;;;;;;;3.90;1.80;;;23.20;92.60;;;;;;5036676;28;20244;-91
2021/05/10 08:54:18;;;;;;;5.13;1.67;;;23.30;91.60;;;;;;5036165;28;20178;-93
2021/05/10 08:56:45;;;;;;;5.50;1.70;;;23.20;91.30;;;;;;5035781;28;20261;-93
2021/05/10 08:59:11;;;;;;;4.32;1.73;;;23.20;91.40;;;;;;5035799;28;20225;-93
2021/05/10 09:01:52;;;;;;;6.90;1.80;;;23.10;91.80;;;;;;5035064;28;20205;-94
2021/05/10 09:04:29;;;;;;;4.20;1.90;;;23.10;91.60;;;;;;5035728;28;20181;-93
2021/05/10 09:07:24;;;;;;;4.72;1.63;;;23.10;91.50;;;;;;5035502;28;20174;-93
2021/05/10 09:10:01;;;;;;;4.35;1.55;;;23.10;91.10;;;;;;5027398;28;20270;-94
2021/05/10 09:12:46;;;;;;;4.38;1.50;;;23.20;90.90;;;;;;5035773;28;20256;-93
2021/05/10 09:15:46;;;;;;;2.22;1.35;;;23.30;91.10;;;;;;5036749;28;20170;-93
2021/05/10 09:18:12;;;;;;;3.55;1.10;;;23.50;91.80;;;;;;5036395;28;20226;-93
2021/05/10 09:20:40;;;;;;;2.13;1.35;;;23.60;91.60;;;;;;5036807;28;20689;-94
2021/05/10 09:23:09;;;;;;;3.42;1.20;;;23.80;90.90;;;;;;5035979;28;20666;-93
2021/05/10 09:25:38;;;;;;;4.82;1.75;;;23.90;90.10;;;;;;5036831;28;20163;-93
2021/05/10 09:28:20;;;;;;;4.88;1.23;;;23.90;90.00;;;;;;5036486;28;20623;-93
2021/05/10 09:30:47;;;;;;;4.53;1.10;;;23.80;84.00;;;;;;5036841;28;20590;-94
2021/05/10 09:33:22;;;;;;;1.85;1.20;;;23.70;85.10;;;;;;5036163;28;20209;-93
2021/05/10 09:35:48;;;;;;;4.25;1.17;;;23.80;84.50;;;;;;5036526;28;20181;-92
2021/05/10 09:38:19;;;;;;;3.08;1.40;;;23.90;85.20;;;;;;5036448;28;20175;-95
2021/05/10 09:40:56;;;;;;;4.13;1.38;;;24.00;86.80;;;;;;5036664;28;20206;-94
2021/05/10 09:43:27;;;;;;;5.53;1.50;;;24.10;87.00;;;;;;5037308;28;20198;-94
2021/05/10 09:45:56;;;;;;;3.78;1.48;;;24.20;84.30;;;;;;5037210;28;20230;-94
2021/05/10 09:48:27;;;;;;;3.35;1.25;;;24.20;83.30;;;;;;5036822;28;20179;-94
2021/05/10 09:51:02;;;;;;;2.75;1.45;;;24.10;83.00;;;;;;5036222;28;20186;-95
2021/05/10 09:53:40;;;;;;;5.88;1.70;;;24.30;86.00;;;;;;5036108;28;20198;-94
2021/05/10 09:56:30;;;;;;;4.75;1.50;;;24.40;82.70;;;;;;5036637;28;20210;-95
2021/05/10 09:59:04;;;;;;;2.70;1.40;;;24.50;84.10;;;;;;5036181;28;20217;-94
2021/05/10 10:01:45;;;;;;;3.72;1.63;;;24.80;82.40;;;;;;5036060;28;20606;-94
2021/05/10 10:04:15;;;;;;;5.75;1.63;;;25.00;81.20;;;;;;5035660;28;20269;-93
2021/05/10 10:06:41;;;;;;;4.55;1.58;;;25.20;82.90;;;;;;5034275;28;20179;-93
2021/05/10 10:09:08;;;;;;;4.95;1.90;;;25.30;83.60;;;;;;5033856;28;20217;-93
2021/05/10 10:11:40;;;;;;;6.07;1.50;;;25.30;78.30;;;;;;5035076;28;20178;-94
2021/05/10 10:17:33;;;;;;;6.35;1.50;;;25.00;81.00;;;;;;5036610;28;20576;-94
2021/05/10 10:20:30;;;;;;;3.53;1.85;;;24.80;81.10;;;;;;5035225;28;20228;-94
2021/05/10 10:23:01;;;;;;;7.25;1.80;;;24.70;80.80;;;;;;5035772;28;20206;-92
2021/05/10 10:25:35;;;;;;;5.55;1.70;;;24.70;79.10;;;;;;5035982;28;20167;-93
2021/05/10 10:28:05;;;;;;;4.40;1.95;;;24.70;82.70;;;;;;5035388;28;20162;-95
2021/05/10 10:30:43;;;;;;;4.35;1.63;;;24.70;80.40;;;;;;5034479;28;20167;-92
2021/05/10 10:33:33;;;;;;;2.25;1.50;;;24.80;84.20;;;;;;5035082;28;20198;-94
2021/05/10 10:36:01;;;;;;;3.88;1.40;;;25.00;82.80;;;;;;5034884;28;20200;-93
2021/05/10 10:38:47;;;;;;;1.88;1.15;;;25.30;82.80;;;;;;5036218;28;20174;-93
2021/05/10 10:41:26;;;;;;;5.15;1.45;;;25.60;83.80;;;;;;5035486;28;20194;-91
2021/05/10 10:43:53;;;;;;;4.60;1.35;;;25.90;82.30;;;;;;5035252;28;20167;-94
2021/05/10 10:46:20;;;;;;;5.18;1.30;;;26.00;83.10;;;;;;5033729;28;20249;-94
2021/05/10 10:48:52;;;;;;;3.28;1.15;;;26.00;79.50;;;;;;5035348;28;20181;-93
2021/05/10 10:51:19;;;;;;;2.92;1.42;;;26.10;81.30;;;;;;5035735;28;20210;-93
2021/05/10 10:53:54;;;;;;;1.77;1.05;;;26.00;76.80;;;;;;5035587;28;20198;-92
2021/05/10 10:56:54;;;;;;;3.78;1.13;;;25.90;81.30;;;;;;5034738;28;20174;-93
2021/05/10 10:59:50;;;;;;;1.30;1.10;;;26.00;80.80;;;;;;5035680;28;20178;-92
2021/05/10 11:02:27;;;;;;;2.78;1.20;;;26.10;81.20;;;;;;5036310;28;20206;-95
2021/05/10 11:05:21;;;;;;;5.10;1.30;;;26.30;77.30;;;;;;5036443;28;20185;-93
2021/05/10 11:08:14;;;;;;;3.85;1.23;;;26.30;77.30;;;;;;5036061;28;20205;-93
2021/05/10 11:10:43;;;;;;;6.90;1.20;;;26.30;72.40;;;;;;5035771;28;20304;-93
2021/05/10 11:13:37;;;;;;;3.13;1.10;;;26.00;74.20;;;;;;5036830;28;20220;-94
2021/05/10 11:16:05;;;;;;;4.25;1.42;;;25.80;75.80;;;;;;5035486;28;20205;-93
2021/05/10 11:18:56;;;;;;;1.88;1.20;;;25.70;76.00;;;;;;5034687;28;20533;-93
2021/05/10 11:21:22;;;;;;;4.18;1.50;;;25.90;78.60;;;;;;5034902;28;20573;-93
2021/05/10 11:24:01;;;;;;;6.93;1.92;;;26.10;76.30;;;;;;5034635;28;20285;-92
2021/05/10 11:26:46;;;;;;;2.65;1.30;;;26.30;77.50;;;;;;5035492;28;20233;-93
2021/05/10 11:29:29;;;;;;;9.77;1.90;;;26.40;78.60;;;;;;5038904;28;20652;-94
2021/05/10 11:32:33;;;;;;;6.25;2.05;;;26.70;78.40;;;;;;5040348;28;20289;-94
2021/05/10 11:35:26;;;;;;;3.60;1.48;;;26.80;76.00;;;;;;5040304;28;20661;-94
2021/05/10 11:38:29;;;;;;;2.92;1.20;;;26.70;74.20;;;;;;5039332;28;20193;-93
2021/05/10 11:40:56;;;;;;;5.57;1.30;;;26.40;72.00;;;;;;5039585;28;20202;-92
2021/05/10 11:43:26;;;;;;;6.68;1.33;;;26.10;71.30;;;;;;5039378;28;20202;-93
2021/05/10 11:45:55;;;;;;;2.58;0.95;;;26.00;71.60;;;;;;5037939;28;20312;-93
2021/05/10 11:49:01;;;;;;;3.17;0.98;;;26.10;71.40;;;;;;5039085;28;20171;-92
2021/05/10 11:51:39;;;;;;;4.13;1.10;;;25.80;72.70;;;;;;5038510;28;20175;-94
2021/05/10 11:54:10;;;;;;;5.72;1.17;;;25.90;71.60;;;;;;5037742;28;20166;-94
2021/05/10 11:56:51;;;;;;;6.63;1.10;;;25.60;70.90;;;;;;5038486;28;20177;-92
2021/05/10 12:02:29;;;;;;;1.92;1.00;;;25.20;72.40;;;;;;5039197;28;20217;-95
2021/05/10 12:05:11;;;;;;;3.72;1.00;;;25.30;73.50;;;;;;5040167;28;20177;-94
2021/05/10 12:07:49;;;;;;;5.13;1.35;;;25.60;73.90;;;;;;5040112;28;20590;-91
2021/05/10 12:10:17;;;;;;;6.00;1.10;;;25.90;75.70;;;;;;5038100;28;20163;-92
2021/05/10 12:12:45;;;;;;;4.18;0.80;;;25.90;72.00;;;;;;5037596;28;20559;-94
2021/05/10 12:15:24;;;;;;;6.05;1.10;;;25.80;71.20;;;;;;5037918;28;20213;-92
2021/05/10 12:18:01;;;;;;;5.45;1.08;;;25.70;71.80;;;;;;5038157;28;20162;-93
2021/05/10 12:20:36;;;;;;;5.20;1.20;;;25.50;72.90;;;;;;5038966;28;20198;-93
2021/05/10 12:23:20;;;;;;;4.47;0.90;;;25.40;71.80;;;;;;5038163;28;20295;-93
2021/05/10 12:25:51;;;;;;;9.50;1.58;;;25.40;71.10;;;;;;5038136;28;20182;-92
2021/05/10 12:28:25;;;;;;;1.83;0.73;;;25.30;72.30;;;;;;5038069;28;20530;-93
2021/05/10 12:30:57;;;;;;;3.20;0.90;;;25.30;71.80;;;;;;5039092;28;20166;-92
2021/05/10 12:33:31;;;;;;;1.90;0.80;;;25.30;72.60;;;;;;5039201;28;20221;-95
2021/05/10 12:36:03;;;;;;;5.03;1.00;;;25.20;73.20;;;;;;5038801;28;20350;-94
2021/05/10 12:38:48;;;;;;;4.72;1.00;;;25.20;74.90;;;;;;5038579;28;20170;-93
2021/05/10 12:41:31;;;;;;;3.55;0.90;;;25.20;73.70;;;;;;5039246;28;20244;-94
2021/05/10 12:44:09;;;;;;;1.58;0.75;;;25.10;72.80;;;;;;5038830;28;20163;-93
2021/05/10 12:46:44;;;;;;;6.22;0.80;;;25.00;73.50;;;;;;5038940;28;20252;-93
2021/05/10 12:49:33;;;;;;;3.88;1.00;;;24.90;74.10;;;;;;5038706;28;20174;-94
2021/05/10 12:52:04;;;;;;;3.15;1.27;;;24.80;72.30;;;;;;5039574;28;20220;-94
2021/05/10 12:54:56;;;;;;;2.72;0.88;;;24.80;74.80;;;;;;5040461;28;20658;-96
2021/05/10 12:57:37;;;;;;;3.30;1.08;;;24.70;75.30;;;;;;5038291;28;20645;-92
2021/05/10 13:00:41;;;;;;;2.80;0.80;;;24.70;75.60;;;;;;5039585;28;20203;-95
2021/05/10 13:03:28;;;;;;;2.97;0.93;;;24.60;74.80;;;;;;5029889;28;20198;-94
2021/05/10 13:05:56;;;;;;;3.05;1.15;;;24.60;76.80;;;;;;5037419;28;20171;-96
2021/05/10 13:08:50;;;;;;;7.07;1.00;;;24.60;75.70;;;;;;5038963;28;20273;-95
2021/05/10 13:11:44;;;;;;;4.40;1.20;;;24.60;76.80;;;;;;5036474;28;20178;-91
2021/05/10 13:14:30;;;;;;;3.60;0.95;;;24.70;78.00;;;;;;5036284;28;20237;-93
2021/05/10 13:21:16;;;;;;;2.28;1.00;;;24.80;76.80;;;;;;5036759;28;20201;-94
2021/05/10 13:32:57;;;;;;;2.50;0.82;;;24.80;77.00;;;;;;5036572;28;20201;-94
2021/05/10 13:35:47;;;;;;;3.35;0.82;;;24.80;79.10;;;;;;5035455;28;20653;-94
2021/05/10 13:38:15;;;;;;;1.88;0.85;;;24.80;78.30;;;;;;5034965;28;20185;-95
2021/05/10 13:40:49;;;;;;;3.35;0.77;;;24.80;77.80;;;;;;5035842;28;20205;-95